Time;durP1;ratioP1;P1;durP2;ratioP2;P2;SDS_P1;SDS_P2;PMS_P1;PMS_P2;Temp;Humidity;BMP_temperature;BMP_pressure;BME280_temperature;BME280_humidity;BME280_pressure;Samples;Min_cycle;Max_cycle;Signal;HPM_P1;HPM_P2
2023/12/16 00:01:34;;;;;;;26.63;10.73;;;;;;;;;;4999456;28;20089;-57
2023/12/16 00:04:00;;;;;;;23.40;10.52;;;;;;;;;;4993238;28;20037;-58
2023/12/16 00:06:26;;;;;;;26.23;10.00;;;;;;;;;;5003039;28;20037;-58
2023/12/16 00:08:52;;;;;;;29.50;10.90;;;;;;;;;;5001267;28;20138;-58
2023/12/16 00:11:18;;;;;;;31.98;10.30;;;;;;;;;;4998490;28;20037;-56
2023/12/16 00:13:44;;;;;;;29.08;10.38;;;;;;;;;;4993635;28;20464;-58
2023/12/16 00:16:10;;;;;;;30.27;11.65;;;;;;;;;;4992996;28;20399;-57
2023/12/16 00:18:37;;;;;;;21.60;10.70;;;;;;;;;;4994640;28;20116;-58
2023/12/16 00:21:03;;;;;;;27.50;10.13;;;;;;;;;;4991339;28;20100;-58
2023/12/16 00:23:30;;;;;;;28.83;10.07;;;;;;;;;;4997977;28;20490;-56
2023/12/16 00:25:56;;;;;;;24.33;10.63;;;;;;;;;;5001457;28;20074;-55
2023/12/16 00:28:22;;;;;;;28.58;11.00;;;;;;;;;;5000523;28;20069;-56
2023/12/16 00:30:47;;;;;;;22.75;10.00;;;;;;;;;;5003481;28;20266;-56
2023/12/16 00:33:13;;;;;;;23.35;9.60;;;;;;;;;;4998260;28;20041;-58
2023/12/16 00:35:39;;;;;;;25.95;9.70;;;;;;;;;;4998824;28;20138;-57
2023/12/16 00:38:05;;;;;;;32.65;10.05;;;;;;;;;;4999889;28;20200;-59
2023/12/16 00:40:31;;;;;;;24.52;9.35;;;;;;;;;;5002080;28;20034;-58
2023/12/16 00:42:57;;;;;;;28.48;9.65;;;;;;;;;;5001934;28;20041;-58
2023/12/16 00:45:23;;;;;;;33.53;10.18;;;;;;;;;;5001337;28;20117;-58
2023/12/16 00:47:49;;;;;;;26.73;9.93;;;;;;;;;;5004536;28;20113;-58
2023/12/16 00:50:15;;;;;;;27.65;9.18;;;;;;;;;;5003723;28;20593;-58
2023/12/16 00:52:42;;;;;;;24.65;9.07;;;;;;;;;;5001516;28;20056;-57
2023/12/16 00:55:08;;;;;;;24.20;9.27;;;;;;;;;;5001265;28;20046;-59
2023/12/16 00:57:34;;;;;;;26.10;9.95;;;;;;;;;;5004518;28;20048;-59
2023/12/16 01:00:00;;;;;;;24.48;8.88;;;;;;;;;;5000536;28;20030;-58
2023/12/16 01:02:26;;;;;;;22.77;8.48;;;;;;;;;;5007695;28;20184;-58
2023/12/16 01:04:52;;;;;;;29.45;9.38;;;;;;;;;;5004445;28;20045;-58
2023/12/16 01:07:18;;;;;;;22.73;8.45;;;;;;;;;;5003151;28;20037;-57
2023/12/16 01:09:44;;;;;;;20.83;8.60;;;;;;;;;;4997095;28;20465;-58
2023/12/16 01:12:10;;;;;;;20.80;7.95;;;;;;;;;;4992003;28;20465;-56
2023/12/16 01:14:36;;;;;;;26.00;9.07;;;;;;;;;;5004026;28;20034;-58
2023/12/16 01:17:02;;;;;;;26.05;7.63;;;;;;;;;;5002389;28;20729;-58
2023/12/16 01:19:28;;;;;;;21.75;7.97;;;;;;;;;;5006309;28;21135;-58
2023/12/16 01:21:54;;;;;;;27.15;7.68;;;;;;;;;;5004335;28;20141;-59
2023/12/16 01:24:21;;;;;;;25.00;7.35;;;;;;;;;;5002156;28;21777;-58
2023/12/16 01:26:47;;;;;;;21.73;6.88;;;;;;;;;;4999598;28;20481;-58
2023/12/16 01:29:13;;;;;;;23.25;7.90;;;;;;;;;;5001791;28;20125;-59
2023/12/16 01:31:39;;;;;;;19.30;7.28;;;;;;;;;;5003654;28;20129;-58
2023/12/16 01:34:04;;;;;;;22.83;7.20;;;;;;;;;;4998110;28;20053;-55
2023/12/16 01:36:32;;;;;;;23.58;6.47;;;;;;;;;;4992693;28;20121;-56
2023/12/16 01:38:58;;;;;;;23.50;6.95;;;;;;;;;;5004767;28;20037;-56
2023/12/16 01:41:24;;;;;;;24.63;6.65;;;;;;;;;;5006249;28;20077;-56
2023/12/16 01:43:50;;;;;;;20.20;6.35;;;;;;;;;;5001094;28;20041;-55
2023/12/16 01:46:16;;;;;;;23.42;6.80;;;;;;;;;;5012633;28;20107;-56
2023/12/16 01:48:42;;;;;;;22.67;6.72;;;;;;;;;;5005940;28;20537;-57
2023/12/16 01:51:09;;;;;;;25.25;6.15;;;;;;;;;;5006189;28;20497;-56
2023/12/16 01:53:35;;;;;;;22.67;6.65;;;;;;;;;;5004569;28;20767;-55
2023/12/16 01:56:01;;;;;;;20.25;5.95;;;;;;;;;;5005900;28;20030;-56
2023/12/16 01:58:28;;;;;;;17.77;6.55;;;;;;;;;;5003620;28;20141;-56
2023/12/16 02:00:54;;;;;;;17.00;6.30;;;;;;;;;;5002215;28;20506;-56
2023/12/16 02:03:20;;;;;;;18.48;6.25;;;;;;;;;;5000692;28;20030;-57
2023/12/16 02:05:47;;;;;;;19.45;5.75;;;;;;;;;;5002332;28;20042;-56
2023/12/16 02:08:12;;;;;;;20.65;5.93;;;;;;;;;;5002477;28;20299;-56
2023/12/16 02:10:38;;;;;;;18.98;6.10;;;;;;;;;;5003772;28;20045;-56
2023/12/16 02:13:05;;;;;;;23.95;6.68;;;;;;;;;;5002290;28;20038;-55
2023/12/16 02:15:31;;;;;;;19.48;6.32;;;;;;;;;;5006158;28;20437;-55
2023/12/16 02:17:57;;;;;;;19.45;5.93;;;;;;;;;;4995540;28;20482;-56
2023/12/16 02:20:23;;;;;;;21.90;5.60;;;;;;;;;;5005430;28;20561;-56
2023/12/16 02:22:49;;;;;;;19.50;5.47;;;;;;;;;;5002036;28;20162;-56
2023/12/16 02:25:16;;;;;;;21.50;5.55;;;;;;;;;;5001536;28;20144;-56
2023/12/16 02:27:42;;;;;;;20.38;5.93;;;;;;;;;;4987359;28;20038;-57
2023/12/16 02:30:09;;;;;;;21.98;5.70;;;;;;;;;;4998501;28;20084;-56
2023/12/16 02:32:35;;;;;;;24.60;5.90;;;;;;;;;;5002024;28;20136;-56
2023/12/16 02:35:01;;;;;;;15.02;4.90;;;;;;;;;;5008285;28;20509;-55
2023/12/16 02:37:27;;;;;;;16.92;5.10;;;;;;;;;;5001906;28;20038;-56
2023/12/16 02:39:53;;;;;;;21.98;5.30;;;;;;;;;;5002760;28;20041;-55
2023/12/16 02:42:19;;;;;;;21.58;5.18;;;;;;;;;;5002061;28;20042;-55
2023/12/16 02:44:45;;;;;;;14.88;4.80;;;;;;;;;;5003778;28;20119;-56
2023/12/16 02:47:11;;;;;;;19.23;4.82;;;;;;;;;;5000932;28;20042;-55
2023/12/16 02:49:37;;;;;;;22.63;5.13;;;;;;;;;;5002836;28;20068;-56
2023/12/16 02:52:03;;;;;;;20.13;4.88;;;;;;;;;;4988920;28;20050;-56
2023/12/16 02:54:29;;;;;;;16.73;4.88;;;;;;;;;;5002617;28;20057;-58
2023/12/16 02:56:55;;;;;;;17.30;5.47;;;;;;;;;;5003614;28;20089;-58
2023/12/16 02:59:21;;;;;;;28.48;5.18;;;;;;;;;;4997325;28;22963;-57
2023/12/16 03:01:47;;;;;;;21.25;5.25;;;;;;;;;;5004628;28;20160;-58
2023/12/16 03:04:13;;;;;;;24.90;5.63;;;;;;;;;;5000202;28;20045;-56
2023/12/16 03:06:43;;;;;;;11.93;4.30;;;;;;;;;;5001001;28;20030;-56
2023/12/16 03:09:09;;;;;;;19.42;4.50;;;;;;;;;;5000296;28;20460;-56
2023/12/16 03:11:35;;;;;;;15.00;4.57;;;;;;;;;;5000776;28;20513;-55
2023/12/16 03:14:01;;;;;;;18.75;4.35;;;;;;;;;;5002472;28;20103;-55
2023/12/16 03:16:27;;;;;;;15.95;4.38;;;;;;;;;;5001295;28;20472;-57
2023/12/16 03:18:53;;;;;;;12.95;4.05;;;;;;;;;;5001005;28;20045;-56
2023/12/16 03:21:19;;;;;;;20.27;4.65;;;;;;;;;;4995907;28;20429;-55
2023/12/16 03:23:45;;;;;;;15.38;4.25;;;;;;;;;;5000757;28;20053;-57
2023/12/16 03:26:11;;;;;;;18.83;4.70;;;;;;;;;;5001275;28;20034;-56
2023/12/16 03:28:36;;;;;;;17.83;4.38;;;;;;;;;;4984001;28;20121;-56
2023/12/16 03:31:02;;;;;;;17.50;4.93;;;;;;;;;;5000646;28;20410;-55
2023/12/16 03:33:28;;;;;;;16.38;5.00;;;;;;;;;;5001412;28;20088;-56
2023/12/16 03:35:54;;;;;;;21.10;4.72;;;;;;;;;;5003375;28;20400;-56
2023/12/16 03:38:20;;;;;;;21.88;5.05;;;;;;;;;;5001181;28;20052;-55
2023/12/16 03:40:46;;;;;;;18.92;4.82;;;;;;;;;;5000207;28;20049;-56
2023/12/16 03:43:12;;;;;;;18.52;5.60;;;;;;;;;;4999782;28;20124;-56
2023/12/16 03:45:38;;;;;;;19.08;4.70;;;;;;;;;;5002024;28;20053;-56
2023/12/16 03:48:04;;;;;;;16.85;4.93;;;;;;;;;;5000826;28;20038;-54
2023/12/16 03:50:30;;;;;;;20.10;4.68;;;;;;;;;;5002719;28;20465;-55
2023/12/16 03:52:56;;;;;;;20.20;5.05;;;;;;;;;;4985205;28;20040;-55
2023/12/16 03:55:22;;;;;;;19.20;4.93;;;;;;;;;;4998568;28;20026;-57
2023/12/16 03:57:48;;;;;;;13.80;5.15;;;;;;;;;;5000830;28;20095;-56
2023/12/16 04:00:15;;;;;;;17.15;4.95;;;;;;;;;;5001231;28;20079;-53
2023/12/16 04:02:41;;;;;;;18.52;5.32;;;;;;;;;;5001168;28;20049;-56
2023/12/16 04:05:07;;;;;;;17.98;5.45;;;;;;;;;;4998640;28;20034;-56
2023/12/16 04:07:33;;;;;;;18.02;5.40;;;;;;;;;;4997312;28;20030;-55
2023/12/16 04:10:00;;;;;;;18.52;5.40;;;;;;;;;;4997316;28;20456;-57
2023/12/16 04:12:26;;;;;;;21.52;5.43;;;;;;;;;;4997308;28;20040;-57
2023/12/16 04:14:51;;;;;;;16.52;5.70;;;;;;;;;;4984495;28;20033;-58
2023/12/16 04:17:17;;;;;;;17.58;5.05;;;;;;;;;;4996617;28;20038;-58
2023/12/16 04:19:51;;;;;;;19.90;6.03;;;;;;;;;;5001032;28;20128;-58
2023/12/16 04:22:17;;;;;;;;;;;;;;;;;;4996749;28;20205;-58
2023/12/16 04:24:43;;;;;;;17.33;5.57;;;;;;;;;;4996707;28;19971;-58
2023/12/16 04:27:09;;;;;;;19.10;5.13;;;;;;;;;;4996804;28;20045;-58
2023/12/16 04:29:35;;;;;;;18.90;5.60;;;;;;;;;;4993019;28;20042;-57
2023/12/16 04:32:01;;;;;;;18.55;5.47;;;;;;;;;;4996041;28;20423;-58
2023/12/16 04:34:27;;;;;;;19.83;5.30;;;;;;;;;;5001666;28;20330;-58
2023/12/16 04:36:53;;;;;;;23.15;5.20;;;;;;;;;;4982672;28;20077;-58
2023/12/16 04:39:19;;;;;;;19.63;5.30;;;;;;;;;;4993979;28;20664;-58
2023/12/16 04:41:45;;;;;;;24.42;5.43;;;;;;;;;;4998053;28;20065;-56
2023/12/16 04:44:11;;;;;;;14.43;5.47;;;;;;;;;;4998949;28;20026;-58
2023/12/16 04:46:37;;;;;;;22.48;5.63;;;;;;;;;;4999352;28;20037;-56
2023/12/16 04:49:03;;;;;;;24.92;5.57;;;;;;;;;;4994712;28;20529;-58
2023/12/16 04:51:29;;;;;;;20.95;6.15;;;;;;;;;;4994152;28;20034;-58
2023/12/16 04:53:56;;;;;;;20.50;5.97;;;;;;;;;;4997385;28;20104;-58
2023/12/16 04:56:22;;;;;;;22.02;6.20;;;;;;;;;;4998519;28;20406;-58
2023/12/16 04:58:48;;;;;;;14.73;5.25;;;;;;;;;;4981233;28;20065;-57
2023/12/16 05:01:14;;;;;;;23.23;6.20;;;;;;;;;;4990202;28;20290;-58
2023/12/16 05:03:41;;;;;;;23.17;5.93;;;;;;;;;;4996509;28;20035;-57
2023/12/16 05:06:07;;;;;;;19.10;5.63;;;;;;;;;;5005118;28;20041;-57
2023/12/16 05:08:33;;;;;;;20.98;5.22;;;;;;;;;;4999418;28;20068;-57
2023/12/16 05:10:59;;;;;;;18.38;5.35;;;;;;;;;;5001805;28;20504;-57
2023/12/16 05:13:25;;;;;;;23.85;5.35;;;;;;;;;;5001092;28;20036;-57
2023/12/16 05:15:51;;;;;;;18.58;5.25;;;;;;;;;;5002299;28;20504;-58
2023/12/16 05:18:18;;;;;;;16.85;4.95;;;;;;;;;;5009632;28;20018;-58
2023/12/16 05:20:44;;;;;;;21.05;5.50;;;;;;;;;;5004988;28;20045;-58
2023/12/16 05:23:10;;;;;;;19.50;4.97;;;;;;;;;;5000654;28;20065;-56
2023/12/16 05:25:37;;;;;;;20.52;5.38;;;;;;;;;;5004145;28;20501;-54
2023/12/16 05:28:03;;;;;;;15.60;4.93;;;;;;;;;;5000194;28;20061;-56
2023/12/16 05:30:29;;;;;;;24.30;5.40;;;;;;;;;;5004244;28;20570;-56
2023/12/16 05:32:55;;;;;;;22.23;4.97;;;;;;;;;;5001810;28;20041;-55
2023/12/16 05:35:21;;;;;;;16.08;5.13;;;;;;;;;;4983960;28;20092;-56
2023/12/16 05:37:47;;;;;;;17.35;4.60;;;;;;;;;;5004222;28;20064;-56
2023/12/16 05:40:13;;;;;;;24.33;5.15;;;;;;;;;;5002718;28;20309;-56
2023/12/16 05:42:40;;;;;;;18.45;5.28;;;;;;;;;;5003908;28;20072;-56
2023/12/16 05:45:06;;;;;;;20.35;5.70;;;;;;;;;;5004887;28;20065;-55
2023/12/16 05:47:33;;;;;;;20.88;5.13;;;;;;;;;;5003978;28;20060;-56
2023/12/16 05:49:59;;;;;;;23.77;5.72;;;;;;;;;;5002702;28;20132;-56
2023/12/16 05:52:25;;;;;;;30.88;4.97;;;;;;;;;;5000655;28;20057;-56
2023/12/16 05:54:51;;;;;;;20.58;5.38;;;;;;;;;;4994842;28;20035;-56
2023/12/16 05:57:17;;;;;;;15.02;4.93;;;;;;;;;;4984960;28;20131;-55
2023/12/16 05:59:43;;;;;;;17.33;4.93;;;;;;;;;;5000809;28;20121;-54
2023/12/16 06:02:09;;;;;;;19.77;5.03;;;;;;;;;;4999885;28;20033;-55
2023/12/16 06:04:35;;;;;;;22.55;4.97;;;;;;;;;;5002889;28;20033;-56
2023/12/16 06:07:01;;;;;;;26.25;5.05;;;;;;;;;;4996965;28;20514;-54
2023/12/16 06:09:27;;;;;;;17.38;4.72;;;;;;;;;;5002162;28;20107;-56
2023/12/16 06:11:55;;;;;;;17.10;4.88;;;;;;;;;;5004782;28;20512;-55
2023/12/16 06:14:21;;;;;;;23.75;5.05;;;;;;;;;;5000679;28;20045;-56
2023/12/16 06:16:47;;;;;;;19.23;4.90;;;;;;;;;;5001212;28;20096;-54
2023/12/16 06:19:13;;;;;;;22.88;4.82;;;;;;;;;;4998973;28;20038;-56
2023/12/16 06:21:39;;;;;;;19.50;5.50;;;;;;;;;;5000938;28;20034;-56
2023/12/16 06:24:08;;;;;;;19.80;4.85;;;;;;;;;;4996520;28;20164;-56
2023/12/16 06:26:34;;;;;;;20.00;4.88;;;;;;;;;;4991808;28;20042;-55
2023/12/16 06:29:00;;;;;;;21.48;5.13;;;;;;;;;;4996375;28;20731;-55
2023/12/16 06:31:26;;;;;;;27.35;5.72;;;;;;;;;;5002495;28;20608;-57
2023/12/16 06:33:53;;;;;;;24.83;5.57;;;;;;;;;;5006187;28;20046;-55
2023/12/16 06:36:19;;;;;;;27.20;5.03;;;;;;;;;;5002041;28;20509;-56
2023/12/16 06:38:45;;;;;;;16.73;4.75;;;;;;;;;;4998313;28;20034;-54
2023/12/16 06:41:11;;;;;;;18.77;4.70;;;;;;;;;;5002088;28;20069;-55
2023/12/16 06:43:37;;;;;;;23.50;5.35;;;;;;;;;;5001373;28;20073;-56
2023/12/16 06:46:03;;;;;;;20.85;4.55;;;;;;;;;;4998096;28;20073;-56
2023/12/16 06:48:29;;;;;;;18.25;4.72;;;;;;;;;;5001125;28;20439;-57
2023/12/16 06:50:59;;;;;;;17.48;4.40;;;;;;;;;;4996032;28;20038;-56
2023/12/16 06:53:25;;;;;;;19.92;4.88;;;;;;;;;;5001962;28;20037;-55
2023/12/16 06:55:52;;;;;;;19.55;4.50;;;;;;;;;;4997159;28;20049;-57
2023/12/16 06:58:18;;;;;;;20.60;5.20;;;;;;;;;;4994156;28;20243;-56
2023/12/16 07:00:44;;;;;;;15.63;4.90;;;;;;;;;;5000379;28;20054;-57
2023/12/16 07:03:10;;;;;;;21.15;4.65;;;;;;;;;;5001609;28;20484;-56
2023/12/16 07:05:37;;;;;;;17.83;4.70;;;;;;;;;;5001613;28;20474;-57
2023/12/16 07:08:03;;;;;;;24.08;5.25;;;;;;;;;;4994265;28;20034;-55
2023/12/16 07:10:29;;;;;;;23.80;5.47;;;;;;;;;;4997315;28;20513;-56
2023/12/16 07:12:55;;;;;;;23.45;5.70;;;;;;;;;;4999436;28;20035;-56
2023/12/16 07:15:21;;;;;;;21.05;5.07;;;;;;;;;;4999423;28;20046;-55
2023/12/16 07:17:47;;;;;;;18.83;5.65;;;;;;;;;;5003190;28;20041;-56
2023/12/16 07:20:13;;;;;;;25.75;5.03;;;;;;;;;;4996815;28;20362;-55
2023/12/16 07:22:39;;;;;;;26.38;4.88;;;;;;;;;;4996996;28;20159;-55
2023/12/16 07:25:06;;;;;;;22.02;5.45;;;;;;;;;;4996583;28;20057;-56
2023/12/16 07:27:32;;;;;;;19.13;5.22;;;;;;;;;;4999776;28;20112;-56
2023/12/16 07:29:57;;;;;;;17.25;4.60;;;;;;;;;;5000212;28;20058;-55
2023/12/16 07:32:24;;;;;;;17.13;5.10;;;;;;;;;;5000449;28;20045;-55
2023/12/16 07:34:50;;;;;;;19.50;5.30;;;;;;;;;;4998366;28;20034;-54
2023/12/16 07:37:16;;;;;;;25.92;5.93;;;;;;;;;;5004764;28;20049;-56
2023/12/16 07:39:42;;;;;;;19.45;4.50;;;;;;;;;;4997943;28;20062;-56
2023/12/16 07:42:09;;;;;;;20.30;5.38;;;;;;;;;;4999905;28;20587;-54
2023/12/16 07:44:35;;;;;;;22.55;5.10;;;;;;;;;;4992695;28;20048;-55
2023/12/16 07:47:01;;;;;;;21.50;5.15;;;;;;;;;;5000695;28;20045;-55
2023/12/16 07:49:27;;;;;;;17.45;5.03;;;;;;;;;;4998475;28;20470;-57
2023/12/16 07:51:54;;;;;;;22.65;5.57;;;;;;;;;;4998225;28;20104;-54
2023/12/16 07:54:22;;;;;;;31.52;6.25;;;;;;;;;;4997602;28;20163;-54
2023/12/16 07:56:48;;;;;;;25.38;5.30;;;;;;;;;;5002783;28;20279;-57
2023/12/16 07:59:14;;;;;;;21.20;5.07;;;;;;;;;;5001406;28;20034;-54
2023/12/16 08:01:40;;;;;;;31.95;5.90;;;;;;;;;;5002158;28;20034;-55
2023/12/16 08:04:06;;;;;;;29.55;6.20;;;;;;;;;;4998605;28;20426;-55
2023/12/16 08:06:32;;;;;;;24.70;5.47;;;;;;;;;;5004378;28;20129;-58
2023/12/16 08:08:58;;;;;;;24.17;5.70;;;;;;;;;;4998986;28;20122;-57
2023/12/16 08:11:24;;;;;;;19.70;5.07;;;;;;;;;;5003100;28;20038;-57
2023/12/16 08:13:50;;;;;;;23.88;5.47;;;;;;;;;;4986421;28;20038;-56
2023/12/16 08:16:16;;;;;;;25.88;5.60;;;;;;;;;;5000030;28;20037;-57
2023/12/16 08:18:42;;;;;;;25.73;5.80;;;;;;;;;;4999332;28;20049;-58
2023/12/16 08:21:08;;;;;;;18.52;5.07;;;;;;;;;;5000879;28;20315;-58
2023/12/16 08:23:34;;;;;;;21.85;5.50;;;;;;;;;;4998764;28;20041;-57
2023/12/16 08:26:00;;;;;;;18.48;5.07;;;;;;;;;;5001596;28;20100;-57
2023/12/16 08:28:26;;;;;;;20.23;5.40;;;;;;;;;;4997962;28;20049;-57
2023/12/16 08:30:52;;;;;;;28.55;6.18;;;;;;;;;;4996366;28;20056;-56
2023/12/16 08:33:18;;;;;;;21.13;5.78;;;;;;;;;;4985124;28;20513;-57
2023/12/16 08:35:44;;;;;;;24.15;5.57;;;;;;;;;;5005602;28;20104;-58
2023/12/16 08:38:11;;;;;;;25.35;6.35;;;;;;;;;;4999382;28;20121;-57
2023/12/16 08:40:37;;;;;;;28.40;5.75;;;;;;;;;;4996543;28;20524;-58
2023/12/16 08:43:03;;;;;;;16.55;5.45;;;;;;;;;;5006265;28;20038;-58
2023/12/16 08:45:29;;;;;;;27.33;6.13;;;;;;;;;;5004314;28;20081;-57
2023/12/16 08:47:55;;;;;;;23.45;5.60;;;;;;;;;;5003063;28;20240;-56
2023/12/16 08:50:23;;;;;;;21.90;5.30;;;;;;;;;;5000520;28;20150;-58
2023/12/16 08:52:49;;;;;;;27.38;5.63;;;;;;;;;;5004758;28;20120;-58
2023/12/16 08:55:15;;;;;;;27.50;6.00;;;;;;;;;;5002690;28;20041;-58
2023/12/16 08:57:41;;;;;;;20.65;5.18;;;;;;;;;;5012442;28;20042;-56
2023/12/16 09:00:10;;;;;;;22.30;5.03;;;;;;;;;;5003393;28;20088;-58
2023/12/16 09:02:36;;;;;;;20.05;5.47;;;;;;;;;;5000188;28;20391;-58
2023/12/16 09:05:02;;;;;;;19.92;4.90;;;;;;;;;;5000842;28;20091;-58
2023/12/16 09:07:28;;;;;;;19.60;4.63;;;;;;;;;;5006858;28;20056;-58
2023/12/16 09:09:54;;;;;;;24.48;4.82;;;;;;;;;;5004205;28;20053;-57
2023/12/16 09:12:20;;;;;;;20.48;4.90;;;;;;;;;;5005466;28;20437;-57
2023/12/16 09:14:46;;;;;;;20.58;4.95;;;;;;;;;;5005140;28;20394;-58
2023/12/16 09:17:12;;;;;;;15.88;4.35;;;;;;;;;;5005694;28;20744;-58
2023/12/16 09:19:38;;;;;;;20.38;5.03;;;;;;;;;;4994437;28;20041;-59
2023/12/16 09:22:04;;;;;;;25.23;5.50;;;;;;;;;;5002543;28;20045;-56
2023/12/16 09:24:31;;;;;;;20.25;4.32;;;;;;;;;;5003528;28;20148;-58
2023/12/16 09:26:57;;;;;;;22.08;4.95;;;;;;;;;;5005532;28;20516;-58
2023/12/16 09:29:22;;;;;;;21.52;4.68;;;;;;;;;;4986685;28;20050;-57
2023/12/16 09:31:48;;;;;;;20.02;4.47;;;;;;;;;;4994338;28;20405;-58
2023/12/16 09:34:14;;;;;;;15.55;4.00;;;;;;;;;;5001199;28;20251;-56
2023/12/16 09:36:40;;;;;;;20.42;3.83;;;;;;;;;;5005592;28;20410;-58
2023/12/16 09:39:09;;;;;;;26.30;4.53;;;;;;;;;;5001697;28;20553;-58
2023/12/16 09:41:42;;;;;;;22.05;4.10;;;;;;;;;;5003725;28;20531;-58
2023/12/16 09:44:09;;;;;;;32.15;4.28;;;;;;;;;;5001794;28;20033;-56
2023/12/16 09:46:35;;;;;;;18.00;4.10;;;;;;;;;;5002627;28;20111;-58
2023/12/16 09:49:01;;;;;;;22.60;4.28;;;;;;;;;;5007254;28;20061;-57
2023/12/16 09:51:27;;;;;;;16.25;3.92;;;;;;;;;;4999591;28;20485;-57
2023/12/16 09:53:54;;;;;;;20.17;3.67;;;;;;;;;;4996010;28;20073;-57
2023/12/16 09:56:20;;;;;;;21.58;3.80;;;;;;;;;;5001502;28;20029;-58
2023/12/16 09:58:47;;;;;;;27.38;4.28;;;;;;;;;;5008472;28;20034;-58
2023/12/16 10:01:13;;;;;;;26.90;3.92;;;;;;;;;;5008250;28;20038;-58
2023/12/16 10:03:39;;;;;;;25.77;4.65;;;;;;;;;;5002130;28;20037;-56
2023/12/16 10:06:09;;;;;;;24.40;4.45;;;;;;;;;;4996610;28;20490;-56
2023/12/16 10:08:36;;;;;;;17.33;4.15;;;;;;;;;;5006119;28;20066;-58
2023/12/16 10:11:05;;;;;;;26.17;4.47;;;;;;;;;;5003061;28;20092;-56
2023/12/16 10:13:32;;;;;;;17.52;3.95;;;;;;;;;;5004945;28;20041;-58
2023/12/16 10:15:58;;;;;;;22.73;4.53;;;;;;;;;;5003456;28;20513;-58
2023/12/16 10:18:26;;;;;;;21.65;3.88;;;;;;;;;;5002722;28;20034;-57
2023/12/16 10:20:52;;;;;;;20.45;4.43;;;;;;;;;;5003114;28;20178;-58
2023/12/16 10:23:18;;;;;;;20.75;4.20;;;;;;;;;;5002015;28;20480;-58
2023/12/16 10:25:44;;;;;;;23.23;4.18;;;;;;;;;;5002846;28;20038;-58
2023/12/16 10:28:10;;;;;;;22.02;4.22;;;;;;;;;;5002111;28;20034;-59
2023/12/16 10:30:36;;;;;;;22.70;4.35;;;;;;;;;;5002529;28;20042;-57
2023/12/16 10:33:03;;;;;;;27.88;4.95;;;;;;;;;;5001003;28;20498;-58
2023/12/16 10:35:30;;;;;;;19.48;4.13;;;;;;;;;;5003787;28;20497;-57
2023/12/16 10:37:56;;;;;;;20.58;3.90;;;;;;;;;;5000031;28;20485;-58
2023/12/16 10:40:23;;;;;;;23.35;3.83;;;;;;;;;;4995001;28;20611;-58
2023/12/16 10:42:49;;;;;;;22.30;4.57;;;;;;;;;;4999132;28;20516;-57
2023/12/16 10:45:15;;;;;;;22.58;3.58;;;;;;;;;;4984200;28;20066;-58
2023/12/16 10:47:42;;;;;;;20.42;3.58;;;;;;;;;;5002079;28;20509;-58
2023/12/16 10:50:09;;;;;;;22.95;4.13;;;;;;;;;;5001253;28;20053;-59
2023/12/16 10:52:35;;;;;;;23.42;4.13;;;;;;;;;;5001654;28;20042;-58
2023/12/16 10:55:06;;;;;;;20.40;4.55;;;;;;;;;;5000608;28;20037;-57
2023/12/16 10:57:40;;;;;;;21.92;3.88;;;;;;;;;;4996367;28;20153;-58
2023/12/16 11:00:06;;;;;;;28.00;4.20;;;;;;;;;;5006408;28;20062;-58
2023/12/16 11:02:36;;;;;;;16.63;3.60;;;;;;;;;;5003992;28;20034;-58
2023/12/16 11:05:07;;;;;;;22.08;4.80;;;;;;;;;;4999196;28;20422;-58
2023/12/16 11:07:38;;;;;;;22.65;4.25;;;;;;;;;;5000319;28;20054;-58
2023/12/16 11:10:05;;;;;;;22.33;3.92;;;;;;;;;;5004664;28;20088;-59
2023/12/16 11:12:33;;;;;;;19.92;4.22;;;;;;;;;;4985253;28;21216;-58
2023/12/16 11:14:59;;;;;;;19.83;3.72;;;;;;;;;;4995697;28;20046;-58
2023/12/16 11:17:28;;;;;;;20.20;4.25;;;;;;;;;;4989866;28;20038;-58
2023/12/16 11:20:00;;;;;;;16.25;3.80;;;;;;;;;;5000098;28;20056;-57
2023/12/16 11:22:26;;;;;;;27.10;4.25;;;;;;;;;;4996004;28;20725;-57
2023/12/16 11:24:52;;;;;;;20.38;3.83;;;;;;;;;;5001031;28;20034;-58
2023/12/16 11:27:20;;;;;;;21.58;3.65;;;;;;;;;;4999478;28;20585;-58
2023/12/16 11:29:47;;;;;;;18.40;4.13;;;;;;;;;;4998674;28;20264;-58
2023/12/16 11:32:13;;;;;;;21.13;3.92;;;;;;;;;;4998927;28;20107;-56
2023/12/16 11:34:39;;;;;;;18.02;4.13;;;;;;;;;;4998853;28;20531;-57
2023/12/16 11:37:05;;;;;;;28.75;3.88;;;;;;;;;;4997039;28;20652;-57
2023/12/16 11:39:41;;;;;;;22.63;4.78;;;;;;;;;;5001084;28;20050;-55
2023/12/16 11:42:09;;;;;;;21.92;3.90;;;;;;;;;;4997814;28;20070;-58
2023/12/16 11:44:54;;;;;;;24.40;4.88;;;;;;;;;;5001851;28;20072;-56
2023/12/16 11:47:27;;;;;;;21.63;3.95;;;;;;;;;;4998514;28;20033;-58
2023/12/16 11:49:57;;;;;;;26.30;4.07;;;;;;;;;;4989766;28;20046;-58
2023/12/16 11:52:23;;;;;;;19.02;4.00;;;;;;;;;;4997070;28;20053;-57
2023/12/16 11:54:50;;;;;;;22.10;3.97;;;;;;;;;;4999098;28;20045;-56
2023/12/16 11:57:26;;;;;;;21.73;4.05;;;;;;;;;;4997301;28;20129;-56
2023/12/16 11:59:53;;;;;;;24.17;4.53;;;;;;;;;;4995722;28;20442;-56
2023/12/16 12:02:19;;;;;;;24.25;3.83;;;;;;;;;;4998165;28;20044;-56
2023/12/16 12:04:46;;;;;;;25.08;4.05;;;;;;;;;;4997255;28;20490;-55
2023/12/16 12:07:12;;;;;;;20.52;3.95;;;;;;;;;;4999035;28;20034;-57
2023/12/16 12:09:44;;;;;;;22.15;3.90;;;;;;;;;;4998647;28;20629;-57
2023/12/16 12:12:12;;;;;;;28.53;4.00;;;;;;;;;;4997874;28;20100;-57
2023/12/16 12:14:39;;;;;;;21.23;3.83;;;;;;;;;;5000095;28;20192;-57
2023/12/16 12:17:05;;;;;;;16.92;4.05;;;;;;;;;;5000644;28;20083;-57
2023/12/16 12:19:31;;;;;;;19.73;3.70;;;;;;;;;;5001443;28;20124;-56
2023/12/16 12:21:57;;;;;;;28.23;4.50;;;;;;;;;;5012252;28;20041;-57
2023/12/16 12:24:24;;;;;;;22.58;4.13;;;;;;;;;;5005091;28;20099;-57
2023/12/16 12:26:52;;;;;;;23.52;3.83;;;;;;;;;;5011480;28;20041;-57
2023/12/16 12:29:17;;;;;;;16.83;3.70;;;;;;;;;;5003092;28;20069;-56
2023/12/16 12:31:48;;;;;;;22.90;4.45;;;;;;;;;;5010274;28;20567;-57
2023/12/16 12:34:18;;;;;;;21.98;4.28;;;;;;;;;;5001201;28;20034;-57
2023/12/16 12:36:45;;;;;;;18.55;3.95;;;;;;;;;;5003990;28;20037;-56
2023/12/16 12:39:21;;;;;;;20.48;4.47;;;;;;;;;;5004100;28;20111;-57
2023/12/16 12:42:00;;;;;;;21.48;4.55;;;;;;;;;;4999433;28;20042;-57
2023/12/16 12:44:26;;;;;;;27.33;4.15;;;;;;;;;;4994035;28;20038;-57
2023/12/16 12:46:52;;;;;;;24.27;4.28;;;;;;;;;;4993991;28;20048;-56
2023/12/16 12:49:19;;;;;;;18.42;4.63;;;;;;;;;;4995026;28;20040;-57
2023/12/16 12:51:51;;;;;;;22.95;4.57;;;;;;;;;;5002489;28;20034;-56
2023/12/16 12:54:18;;;;;;;23.13;4.60;;;;;;;;;;5000070;28;20468;-55
2023/12/16 12:56:44;;;;;;;23.98;4.82;;;;;;;;;;4991429;28;20042;-56
2023/12/16 12:59:10;;;;;;;18.95;4.63;;;;;;;;;;5003705;28;20092;-56
2023/12/16 13:01:36;;;;;;;17.92;4.45;;;;;;;;;;5008140;28;20128;-57
2023/12/16 13:04:03;;;;;;;26.85;4.78;;;;;;;;;;4998272;28;20041;-57
2023/12/16 13:06:29;;;;;;;17.00;3.83;;;;;;;;;;5004175;28;20031;-57
2023/12/16 13:08:55;;;;;;;20.60;4.55;;;;;;;;;;5005298;28;20041;-56
2023/12/16 13:11:22;;;;;;;21.42;5.63;;;;;;;;;;5002438;28;20581;-56
2023/12/16 13:13:48;;;;;;;22.38;4.53;;;;;;;;;;4992617;28;20259;-57
2023/12/16 13:16:14;;;;;;;19.60;4.60;;;;;;;;;;5006271;28;20124;-57
2023/12/16 13:18:44;;;;;;;18.98;4.80;;;;;;;;;;4998697;28;20175;-55
2023/12/16 13:21:10;;;;;;;19.05;4.95;;;;;;;;;;4999843;28;20041;-55
2023/12/16 13:23:37;;;;;;;20.00;5.00;;;;;;;;;;4996244;28;20400;-56
2023/12/16 13:26:03;;;;;;;20.52;4.75;;;;;;;;;;5008192;28;20152;-57
2023/12/16 13:28:29;;;;;;;17.92;4.70;;;;;;;;;;5001197;28;20512;-56
2023/12/16 13:30:55;;;;;;;17.02;4.05;;;;;;;;;;5003447;28;20037;-57
2023/12/16 13:33:21;;;;;;;18.35;4.40;;;;;;;;;;5005261;28;20041;-57
2023/12/16 13:35:48;;;;;;;18.80;5.00;;;;;;;;;;5002109;28;20034;-56
2023/12/16 13:38:14;;;;;;;24.13;4.75;;;;;;;;;;5003434;28;20502;-57
2023/12/16 13:40:40;;;;;;;25.00;4.65;;;;;;;;;;4987125;28;20061;-55
2023/12/16 13:43:06;;;;;;;17.80;4.70;;;;;;;;;;5002161;28;20558;-57
2023/12/16 13:45:32;;;;;;;19.80;4.95;;;;;;;;;;5002633;28;20288;-57
2023/12/16 13:47:59;;;;;;;17.45;3.78;;;;;;;;;;4997234;28;20092;-56
2023/12/16 13:50:25;;;;;;;18.98;3.95;;;;;;;;;;5007076;28;20297;-57
2023/12/16 13:52:51;;;;;;;20.45;4.75;;;;;;;;;;5005425;28;20486;-57
2023/12/16 13:55:17;;;;;;;19.30;4.53;;;;;;;;;;5003754;28;20038;-57
2023/12/16 13:57:44;;;;;;;24.90;4.93;;;;;;;;;;5000076;28;20042;-56
2023/12/16 14:00:10;;;;;;;16.58;4.57;;;;;;;;;;5002107;28;20021;-55
2023/12/16 14:02:37;;;;;;;21.52;5.22;;;;;;;;;;5001313;28;20510;-57
2023/12/16 14:05:04;;;;;;;21.17;4.90;;;;;;;;;;4997353;28;20030;-56
2023/12/16 14:07:30;;;;;;;21.80;5.20;;;;;;;;;;4997350;28;20742;-57
2023/12/16 14:09:56;;;;;;;26.98;5.43;;;;;;;;;;4996191;28;20038;-57
2023/12/16 14:12:22;;;;;;;20.95;5.53;;;;;;;;;;5003893;28;20366;-59
2023/12/16 14:14:48;;;;;;;18.10;4.50;;;;;;;;;;5001442;28;20054;-59
2023/12/16 14:17:14;;;;;;;25.90;5.53;;;;;;;;;;4983092;28;20038;-58
2023/12/16 14:19:41;;;;;;;21.88;5.72;;;;;;;;;;5003374;28;20045;-59
2023/12/16 14:22:07;;;;;;;22.85;6.70;;;;;;;;;;5001727;28;20061;-57
2023/12/16 14:24:33;;;;;;;18.17;5.55;;;;;;;;;;5006061;28;20412;-58